Date,TemperatureHighF,TemperatureAvgF,TemperatureLowF,DewpointHighF,DewpointAvgF,DewpointLowF,HumidityHigh,HumidityAvg,HumidityLow,PressureMaxIn,PressureMinIn,WindSpeedMaxMPH,WindSpeedAvgMPH,GustSpeedMaxMPH,PrecipitationSumIn
2013-3-1,46,40,35,36,32,26,92,73,52,29.67,29.50,4,2,10,0.00
2013-3-2,38,35,32,31,28,27,85,74,66,29.68,29.61,3,1,7,0.00
2013-3-3,37,33,29,28,25,24,86,75,61,29.63,29.55,4,2,9,0.00
2013-3-4,39,32,28,26,23,21,83,68,55,29.76,29.61,8,4,17,0.00
2013-3-5,47,37,29,33,27,22,80,68,51,30.02,29.76,5,2,11,0.00
2013-3-6,42,37,34,36,33,30,93,84,72,29.99,29.86,9,4,22,0.01
2013-3-7,39,35,31,32,30,28,95,83,70,29.94,29.83,9,6,23,0.01
2013-3-8,38,33,30,33,30,26,97,91,63,30.07,29.87,91,6,118,0.05
2013-3-9,52,38,33,33,13,-100,83,49,23,30.30,30.06,7,2,18,0.26
2013-3-10,47,36,29,36,32,28,94,83,65,30.36,30.28,3,0,6,0.00
2013-3-11,50,42,35,44,39,33,96,89,79,30.30,30.11,1,0,5,0.00
2013-3-12,52,48,42,51,47,41,98,95,89,30.11,29.69,88,5,131,0.63
2013-3-13,50,42,36,43,31,24,96,67,38,29.79,29.70,24,2,130,0.00
2013-3-14,38,32,28,29,20,12,91,63,42,29.84,29.74,6,3,17,0.00
2013-3-15,41,33,26,30,19,11,76,56,38,29.88,29.66,8,3,20,0.00
2013-3-16,40,33,30,29,23,6,86,67,24,29.84,29.69,4,1,9,0.00
2013-3-17,37,32,27,29,14,6,86,51,28,30.27,29.84,6,2,16,0.00
2013-3-18,37,29,22,29,14,3,95,54,28,30.40,30.10,4,1,10,0.00
2013-3-19,39,34,30,38,33,29,97,95,90,30.10,29.55,126,18,140,0.59
2013-3-20,42,35,29,31,23,18,94,63,39,29.79,29.68,7,2,16,0.00
2013-3-21,38,33,30,28,25,21,84,72,59,29.79,29.57,5,2,9,0.00
2013-3-22,40,33,26,24,18,13,70,55,39,29.77,29.61,5,3,14,0.00
2013-3-23,45,37,29,25,21,16,78,54,33,29.82,29.66,8,4,19,0.00
2013-3-24,47,38,29,31,24,19,77,59,41,29.85,29.67,5,2,16,0.00
2013-3-25,45,38,32,33,29,25,93,71,48,29.72,29.39,7,2,16,0.02
2013-3-26,47,40,34,32,28,21,81,63,44,29.78,29.48,3,1,15,0.00
2013-3-27,52,42,32,29,24,21,66,49,31,29.85,29.74,5,2,12,0.00
2013-3-28,47,41,38,36,32,28,78,69,58,30.01,29.84,3,1,12,0.00
2013-3-29,57,47,39,35,32,27,78,57,35,30.04,29.95,5,2,12,0.00
2013-3-30,57,47,38,32,27,16,74,49,21,30.08,29.98,5,2,11,0.00
2013-3-31,56,46,34,45,33,22,96,64,41,30.09,29.61,4,1,11,0.19